LDSS weather

Sinj Glider Airport
Sinj, Split-Dalmatia County, Croatia

Public forecast

Using degrees Celsius for public forecast. Weather courtesy of forecast.io.

Closest aviation weather report (METAR) to Sinj Glider Airport

Closest report is Split Airport, 18.9 nm (35.0 km) WSW. Retrieved 2020/07/07 01:30 UTC (18 minutes ago):

LDSP 070130Z AUTO 02006KT 250V050 CAVOK 28/14 Q1006

Closest aviation forecast (TAF) to Sinj Glider Airport

Closest forecast is Split Airport, 18.9 nm (35.0 km) WSW. Retrieved 2020-07-07 00:29 UTC (1 hour ago):

TAF LDSP 062325Z 0700/0800 35007KT CAVOK TX29/0712Z TN19/0723Z BECMG 0701/0703 06012KT TEMPO 0702/0710 06018G30KT PROB30 0712/0716 23010KT